sensor_id;sensor_type;location;lat;lon;timestamp;P1;durP1;ratioP1;P2;durP2;ratioP2
1545;SDS011;766;51.502;9.752;2023-11-21T00:01:22;7.30;;;2.33;;
1545;SDS011;766;51.502;9.752;2023-11-21T00:03:52;8.27;;;2.35;;
1545;SDS011;766;51.502;9.752;2023-11-21T00:06:21;5.88;;;2.50;;
1545;SDS011;766;51.502;9.752;2023-11-21T00:08:49;8.15;;;2.15;;
1545;SDS011;766;51.502;9.752;2023-11-21T00:11:18;6.30;;;2.28;;
1545;SDS011;766;51.502;9.752;2023-11-21T00:13:46;9.18;;;2.28;;
1545;SDS011;766;51.502;9.752;2023-11-21T00:16:16;9.60;;;2.25;;
1545;SDS011;766;51.502;9.752;2023-11-21T00:18:45;6.50;;;2.22;;
1545;SDS011;766;51.502;9.752;2023-11-21T00:21:15;6.75;;;2.00;;
1545;SDS011;766;51.502;9.752;2023-11-21T00:23:43;6.65;;;1.95;;
1545;SDS011;766;51.502;9.752;2023-11-21T00:26:11;7.72;;;2.05;;
1545;SDS011;766;51.502;9.752;2023-11-21T00:28:40;6.45;;;2.10;;
1545;SDS011;766;51.502;9.752;2023-11-21T00:31:09;6.63;;;2.38;;
1545;SDS011;766;51.502;9.752;2023-11-21T00:33:37;4.80;;;3.45;;
1545;SDS011;766;51.502;9.752;2023-11-21T00:36:05;8.23;;;3.30;;
1545;SDS011;766;51.502;9.752;2023-11-21T00:38:37;10.90;;;3.88;;
1545;SDS011;766;51.502;9.752;2023-11-21T00:41:07;12.98;;;3.58;;
1545;SDS011;766;51.502;9.752;2023-11-21T00:43:36;7.38;;;3.15;;
1545;SDS011;766;51.502;9.752;2023-11-21T00:46:04;9.60;;;3.60;;
1545;SDS011;766;51.502;9.752;2023-11-21T00:48:33;9.70;;;2.53;;
1545;SDS011;766;51.502;9.752;2023-11-21T00:51:02;12.05;;;3.53;;
1545;SDS011;766;51.502;9.752;2023-11-21T00:53:30;7.43;;;3.40;;
1545;SDS011;766;51.502;9.752;2023-11-21T00:56:00;8.18;;;3.75;;
1545;SDS011;766;51.502;9.752;2023-11-21T00:58:29;10.48;;;4.15;;
1545;SDS011;766;51.502;9.752;2023-11-21T01:00:57;6.72;;;3.92;;
1545;SDS011;766;51.502;9.752;2023-11-21T01:03:26;7.22;;;4.78;;
1545;SDS011;766;51.502;9.752;2023-11-21T01:05:54;11.20;;;5.10;;
1545;SDS011;766;51.502;9.752;2023-11-21T01:08:22;16.83;;;5.70;;
1545;SDS011;766;51.502;9.752;2023-11-21T01:10:51;9.57;;;5.00;;
1545;SDS011;766;51.502;9.752;2023-11-21T01:13:20;10.25;;;5.90;;
1545;SDS011;766;51.502;9.752;2023-11-21T01:15:48;14.30;;;5.57;;
1545;SDS011;766;51.502;9.752;2023-11-21T01:18:17;8.20;;;4.65;;
1545;SDS011;766;51.502;9.752;2023-11-21T01:20:45;14.82;;;4.60;;
1545;SDS011;766;51.502;9.752;2023-11-21T01:23:13;8.65;;;3.88;;
1545;SDS011;766;51.502;9.752;2023-11-21T01:25:41;7.90;;;4.00;;
1545;SDS011;766;51.502;9.752;2023-11-21T01:28:09;9.50;;;4.10;;
1545;SDS011;766;51.502;9.752;2023-11-21T01:30:39;9.70;;;4.38;;
1545;SDS011;766;51.502;9.752;2023-11-21T01:33:08;8.07;;;4.63;;
1545;SDS011;766;51.502;9.752;2023-11-21T01:35:36;14.90;;;6.15;;
1545;SDS011;766;51.502;9.752;2023-11-21T01:38:04;14.05;;;6.60;;
1545;SDS011;766;51.502;9.752;2023-11-21T01:40:34;10.38;;;5.28;;
1545;SDS011;766;51.502;9.752;2023-11-21T01:43:03;9.35;;;4.75;;
1545;SDS011;766;51.502;9.752;2023-11-21T01:45:31;14.23;;;5.28;;
1545;SDS011;766;51.502;9.752;2023-11-21T01:48:01;10.07;;;4.82;;
1545;SDS011;766;51.502;9.752;2023-11-21T01:50:33;12.85;;;5.55;;
1545;SDS011;766;51.502;9.752;2023-11-21T01:53:01;10.10;;;5.38;;
1545;SDS011;766;51.502;9.752;2023-11-21T01:55:30;8.43;;;4.70;;
1545;SDS011;766;51.502;9.752;2023-11-21T01:58:00;11.82;;;5.13;;
1545;SDS011;766;51.502;9.752;2023-11-21T02:00:29;12.82;;;5.45;;
1545;SDS011;766;51.502;9.752;2023-11-21T02:02:57;8.75;;;5.35;;
1545;SDS011;766;51.502;9.752;2023-11-21T02:05:28;8.30;;;5.25;;
1545;SDS011;766;51.502;9.752;2023-11-21T02:07:56;9.63;;;5.10;;
1545;SDS011;766;51.502;9.752;2023-11-21T02:10:24;8.73;;;4.65;;
1545;SDS011;766;51.502;9.752;2023-11-21T02:12:53;11.65;;;5.38;;
1545;SDS011;766;51.502;9.752;2023-11-21T02:15:22;10.77;;;5.07;;
1545;SDS011;766;51.502;9.752;2023-11-21T02:17:53;14.23;;;5.40;;
1545;SDS011;766;51.502;9.752;2023-11-21T02:20:22;9.48;;;5.53;;
1545;SDS011;766;51.502;9.752;2023-11-21T02:22:53;8.10;;;5.32;;
1545;SDS011;766;51.502;9.752;2023-11-21T02:25:25;10.98;;;5.82;;
1545;SDS011;766;51.502;9.752;2023-11-21T02:27:55;11.52;;;6.40;;
1545;SDS011;766;51.502;9.752;2023-11-21T02:30:24;9.73;;;5.75;;
1545;SDS011;766;51.502;9.752;2023-11-21T02:32:54;13.10;;;6.57;;
1545;SDS011;766;51.502;9.752;2023-11-21T02:35:23;10.23;;;6.18;;
1545;SDS011;766;51.502;9.752;2023-11-21T02:37:54;16.63;;;5.95;;
1545;SDS011;766;51.502;9.752;2023-11-21T02:40:22;9.43;;;5.13;;
1545;SDS011;766;51.502;9.752;2023-11-21T02:42:51;10.18;;;5.95;;
1545;SDS011;766;51.502;9.752;2023-11-21T02:45:20;9.90;;;5.72;;
1545;SDS011;766;51.502;9.752;2023-11-21T02:47:48;8.98;;;5.88;;
1545;SDS011;766;51.502;9.752;2023-11-21T02:50:17;10.10;;;5.90;;
1545;SDS011;766;51.502;9.752;2023-11-21T02:52:47;9.15;;;6.00;;
1545;SDS011;766;51.502;9.752;2023-11-21T02:55:16;14.00;;;6.25;;
1545;SDS011;766;51.502;9.752;2023-11-21T02:57:45;10.50;;;5.80;;
1545;SDS011;766;51.502;9.752;2023-11-21T03:00:13;12.35;;;6.03;;
1545;SDS011;766;51.502;9.752;2023-11-21T03:02:44;14.40;;;6.13;;
1545;SDS011;766;51.502;9.752;2023-11-21T03:05:14;12.90;;;6.43;;
1545;SDS011;766;51.502;9.752;2023-11-21T03:07:42;13.48;;;6.18;;
1545;SDS011;766;51.502;9.752;2023-11-21T03:10:10;11.10;;;6.10;;
1545;SDS011;766;51.502;9.752;2023-11-21T03:12:40;10.23;;;6.13;;
1545;SDS011;766;51.502;9.752;2023-11-21T03:15:08;12.85;;;6.32;;
1545;SDS011;766;51.502;9.752;2023-11-21T03:17:37;16.50;;;6.65;;
1545;SDS011;766;51.502;9.752;2023-11-21T03:20:06;12.57;;;6.20;;
1545;SDS011;766;51.502;9.752;2023-11-21T03:22:38;10.32;;;5.82;;
1545;SDS011;766;51.502;9.752;2023-11-21T03:25:06;11.68;;;5.88;;
1545;SDS011;766;51.502;9.752;2023-11-21T03:27:39;11.65;;;6.10;;
1545;SDS011;766;51.502;9.752;2023-11-21T03:30:08;11.52;;;6.18;;
1545;SDS011;766;51.502;9.752;2023-11-21T03:32:38;11.05;;;7.50;;
1545;SDS011;766;51.502;9.752;2023-11-21T03:35:07;19.00;;;6.95;;
1545;SDS011;766;51.502;9.752;2023-11-21T03:37:36;13.95;;;7.07;;
1545;SDS011;766;51.502;9.752;2023-11-21T03:40:05;13.55;;;7.03;;
1545;SDS011;766;51.502;9.752;2023-11-21T03:42:35;12.77;;;6.95;;
1545;SDS011;766;51.502;9.752;2023-11-21T03:45:05;13.38;;;6.72;;
1545;SDS011;766;51.502;9.752;2023-11-21T03:47:35;14.77;;;6.80;;
1545;SDS011;766;51.502;9.752;2023-11-21T03:50:03;16.42;;;6.10;;
1545;SDS011;766;51.502;9.752;2023-11-21T03:52:32;13.27;;;5.85;;
1545;SDS011;766;51.502;9.752;2023-11-21T03:55:01;12.15;;;5.72;;
1545;SDS011;766;51.502;9.752;2023-11-21T03:57:30;13.00;;;6.55;;
1545;SDS011;766;51.502;9.752;2023-11-21T03:59:58;17.48;;;7.90;;
1545;SDS011;766;51.502;9.752;2023-11-21T04:02:28;22.70;;;8.45;;
1545;SDS011;766;51.502;9.752;2023-11-21T04:04:58;18.80;;;9.20;;
1545;SDS011;766;51.502;9.752;2023-11-21T04:07:26;13.25;;;7.63;;
1545;SDS011;766;51.502;9.752;2023-11-21T04:09:54;14.40;;;7.38;;
1545;SDS011;766;51.502;9.752;2023-11-21T04:12:23;15.90;;;7.85;;
1545;SDS011;766;51.502;9.752;2023-11-21T04:14:51;18.95;;;8.43;;
1545;SDS011;766;51.502;9.752;2023-11-21T04:17:21;14.07;;;7.65;;
1545;SDS011;766;51.502;9.752;2023-11-21T04:19:51;14.00;;;8.02;;
1545;SDS011;766;51.502;9.752;2023-11-21T04:22:19;19.80;;;8.65;;
1545;SDS011;766;51.502;9.752;2023-11-21T04:24:47;14.80;;;8.23;;
1545;SDS011;766;51.502;9.752;2023-11-21T04:27:16;19.95;;;9.00;;
1545;SDS011;766;51.502;9.752;2023-11-21T04:29:44;13.43;;;7.82;;
1545;SDS011;766;51.502;9.752;2023-11-21T04:32:16;15.07;;;8.48;;
1545;SDS011;766;51.502;9.752;2023-11-21T04:34:44;16.20;;;8.63;;
1545;SDS011;766;51.502;9.752;2023-11-21T04:37:14;22.75;;;9.15;;
1545;SDS011;766;51.502;9.752;2023-11-21T04:39:42;14.60;;;8.35;;
1545;SDS011;766;51.502;9.752;2023-11-21T04:42:10;15.57;;;8.57;;
1545;SDS011;766;51.502;9.752;2023-11-21T04:44:39;16.75;;;9.02;;
1545;SDS011;766;51.502;9.752;2023-11-21T04:47:07;19.67;;;9.63;;
1545;SDS011;766;51.502;9.752;2023-11-21T04:49:35;21.02;;;9.07;;
1545;SDS011;766;51.502;9.752;2023-11-21T04:52:04;18.50;;;9.00;;
1545;SDS011;766;51.502;9.752;2023-11-21T04:54:35;21.13;;;8.95;;
1545;SDS011;766;51.502;9.752;2023-11-21T04:57:03;14.98;;;9.82;;
1545;SDS011;766;51.502;9.752;2023-11-21T04:59:33;17.90;;;9.70;;
1545;SDS011;766;51.502;9.752;2023-11-21T05:02:02;20.67;;;10.00;;
1545;SDS011;766;51.502;9.752;2023-11-21T05:04:31;23.02;;;10.75;;
1545;SDS011;766;51.502;9.752;2023-11-21T05:07:00;26.75;;;12.02;;
1545;SDS011;766;51.502;9.752;2023-11-21T05:09:28;20.35;;;11.32;;
1545;SDS011;766;51.502;9.752;2023-11-21T05:12:00;24.50;;;13.65;;
1545;SDS011;766;51.502;9.752;2023-11-21T05:14:28;25.65;;;12.82;;
1545;SDS011;766;51.502;9.752;2023-11-21T05:16:56;24.13;;;12.70;;
1545;SDS011;766;51.502;9.752;2023-11-21T05:19:25;33.25;;;13.48;;
1545;SDS011;766;51.502;9.752;2023-11-21T05:21:54;26.35;;;12.45;;
1545;SDS011;766;51.502;9.752;2023-11-21T05:24:22;27.92;;;13.02;;
1545;SDS011;766;51.502;9.752;2023-11-21T05:26:50;24.40;;;13.27;;
1545;SDS011;766;51.502;9.752;2023-11-21T05:29:20;28.23;;;13.07;;
1545;SDS011;766;51.502;9.752;2023-11-21T05:31:49;31.30;;;13.90;;
1545;SDS011;766;51.502;9.752;2023-11-21T05:34:17;27.13;;;13.07;;
1545;SDS011;766;51.502;9.752;2023-11-21T05:36:47;27.73;;;14.15;;
1545;SDS011;766;51.502;9.752;2023-11-21T05:39:15;25.65;;;13.40;;
1545;SDS011;766;51.502;9.752;2023-11-21T05:41:43;30.30;;;14.65;;
1545;SDS011;766;51.502;9.752;2023-11-21T05:44:15;27.65;;;14.15;;
1545;SDS011;766;51.502;9.752;2023-11-21T05:46:45;24.77;;;13.95;;
1545;SDS011;766;51.502;9.752;2023-11-21T05:49:14;25.20;;;13.82;;
1545;SDS011;766;51.502;9.752;2023-11-21T05:51:45;28.08;;;13.65;;
1545;SDS011;766;51.502;9.752;2023-11-21T05:54:14;23.95;;;12.98;;
1545;SDS011;766;51.502;9.752;2023-11-21T05:56:43;34.35;;;14.35;;
1545;SDS011;766;51.502;9.752;2023-11-21T05:59:11;33.92;;;14.00;;
1545;SDS011;766;51.502;9.752;2023-11-21T06:01:39;30.10;;;15.00;;
1545;SDS011;766;51.502;9.752;2023-11-21T06:04:09;30.77;;;14.38;;
1545;SDS011;766;51.502;9.752;2023-11-21T06:06:37;26.83;;;14.55;;
1545;SDS011;766;51.502;9.752;2023-11-21T06:09:06;30.10;;;14.63;;
1545;SDS011;766;51.502;9.752;2023-11-21T06:11:35;29.77;;;14.93;;
1545;SDS011;766;51.502;9.752;2023-11-21T06:14:03;31.67;;;13.77;;
1545;SDS011;766;51.502;9.752;2023-11-21T06:16:34;25.20;;;14.15;;
1545;SDS011;766;51.502;9.752;2023-11-21T06:19:03;30.45;;;15.50;;
1545;SDS011;766;51.502;9.752;2023-11-21T06:21:33;29.92;;;14.20;;
1545;SDS011;766;51.502;9.752;2023-11-21T06:24:02;33.08;;;14.32;;
1545;SDS011;766;51.502;9.752;2023-11-21T06:26:30;28.13;;;14.38;;
1545;SDS011;766;51.502;9.752;2023-11-21T06:28:59;29.17;;;14.48;;
1545;SDS011;766;51.502;9.752;2023-11-21T06:31:29;34.72;;;14.50;;
1545;SDS011;766;51.502;9.752;2023-11-21T06:33:59;33.05;;;15.45;;
1545;SDS011;766;51.502;9.752;2023-11-21T06:36:27;32.00;;;16.65;;
1545;SDS011;766;51.502;9.752;2023-11-21T06:38:57;43.50;;;18.90;;
1545;SDS011;766;51.502;9.752;2023-11-21T06:41:25;36.65;;;15.73;;
1545;SDS011;766;51.502;9.752;2023-11-21T06:43:53;33.13;;;16.10;;
1545;SDS011;766;51.502;9.752;2023-11-21T06:46:22;40.70;;;17.92;;
1545;SDS011;766;51.502;9.752;2023-11-21T06:48:50;36.67;;;16.90;;
1545;SDS011;766;51.502;9.752;2023-11-21T06:51:20;36.15;;;16.88;;
1545;SDS011;766;51.502;9.752;2023-11-21T06:53:48;39.17;;;17.10;;
1545;SDS011;766;51.502;9.752;2023-11-21T06:56:18;31.35;;;16.90;;
1545;SDS011;766;51.502;9.752;2023-11-21T06:58:47;33.75;;;16.63;;
1545;SDS011;766;51.502;9.752;2023-11-21T07:01:16;33.90;;;16.85;;
1545;SDS011;766;51.502;9.752;2023-11-21T07:03:44;40.13;;;16.88;;
1545;SDS011;766;51.502;9.752;2023-11-21T07:06:15;38.20;;;16.35;;
1545;SDS011;766;51.502;9.752;2023-11-21T07:08:44;33.25;;;16.13;;
1545;SDS011;766;51.502;9.752;2023-11-21T07:11:13;32.20;;;15.40;;
1545;SDS011;766;51.502;9.752;2023-11-21T07:13:43;31.58;;;15.90;;
1545;SDS011;766;51.502;9.752;2023-11-21T07:16:12;31.92;;;16.38;;
1545;SDS011;766;51.502;9.752;2023-11-21T07:18:44;38.42;;;15.55;;
1545;SDS011;766;51.502;9.752;2023-11-21T07:21:12;40.63;;;16.35;;
1545;SDS011;766;51.502;9.752;2023-11-21T07:23:42;30.88;;;16.70;;
1545;SDS011;766;51.502;9.752;2023-11-21T07:26:10;36.40;;;16.88;;
1545;SDS011;766;51.502;9.752;2023-11-21T07:28:38;41.78;;;16.17;;
1545;SDS011;766;51.502;9.752;2023-11-21T07:31:08;46.13;;;16.17;;
1545;SDS011;766;51.502;9.752;2023-11-21T07:33:37;35.17;;;17.30;;
1545;SDS011;766;51.502;9.752;2023-11-21T07:36:05;35.35;;;15.90;;
1545;SDS011;766;51.502;9.752;2023-11-21T07:38:34;37.13;;;16.05;;
1545;SDS011;766;51.502;9.752;2023-11-21T07:41:03;38.53;;;16.45;;
1545;SDS011;766;51.502;9.752;2023-11-21T07:43:41;39.00;;;16.33;;
1545;SDS011;766;51.502;9.752;2023-11-21T07:46:11;31.38;;;15.95;;
1545;SDS011;766;51.502;9.752;2023-11-21T07:48:40;36.88;;;15.05;;
1545;SDS011;766;51.502;9.752;2023-11-21T07:51:10;38.70;;;17.10;;
1545;SDS011;766;51.502;9.752;2023-11-21T07:53:39;28.88;;;15.02;;
1545;SDS011;766;51.502;9.752;2023-11-21T07:56:08;34.78;;;15.90;;
1545;SDS011;766;51.502;9.752;2023-11-21T07:58:36;35.70;;;15.82;;
1545;SDS011;766;51.502;9.752;2023-11-21T08:01:05;29.52;;;13.93;;
1545;SDS011;766;51.502;9.752;2023-11-21T08:03:35;35.10;;;14.98;;
1545;SDS011;766;51.502;9.752;2023-11-21T08:06:04;25.83;;;13.52;;
1545;SDS011;766;51.502;9.752;2023-11-21T08:08:33;29.65;;;14.65;;
1545;SDS011;766;51.502;9.752;2023-11-21T08:11:01;29.60;;;14.02;;
1545;SDS011;766;51.502;9.752;2023-11-21T08:13:30;25.17;;;12.82;;
1545;SDS011;766;51.502;9.752;2023-11-21T08:15:58;25.45;;;12.82;;
1545;SDS011;766;51.502;9.752;2023-11-21T08:18:29;21.77;;;12.05;;
1545;SDS011;766;51.502;9.752;2023-11-21T08:20:59;21.50;;;12.60;;
1545;SDS011;766;51.502;9.752;2023-11-21T08:23:27;22.98;;;11.98;;
1545;SDS011;766;51.502;9.752;2023-11-21T08:25:56;20.15;;;11.90;;
1545;SDS011;766;51.502;9.752;2023-11-21T08:28:24;21.00;;;10.73;;
1545;SDS011;766;51.502;9.752;2023-11-21T08:30:53;21.65;;;11.85;;
1545;SDS011;766;51.502;9.752;2023-11-21T08:33:21;19.95;;;10.93;;
1545;SDS011;766;51.502;9.752;2023-11-21T08:35:49;23.05;;;11.25;;
1545;SDS011;766;51.502;9.752;2023-11-21T08:38:19;17.90;;;11.02;;
1545;SDS011;766;51.502;9.752;2023-11-21T08:40:47;20.15;;;11.77;;
1545;SDS011;766;51.502;9.752;2023-11-21T08:43:16;21.65;;;11.73;;
1545;SDS011;766;51.502;9.752;2023-11-21T08:45:46;17.17;;;9.73;;
1545;SDS011;766;51.502;9.752;2023-11-21T08:48:14;20.83;;;10.77;;
1545;SDS011;766;51.502;9.752;2023-11-21T08:50:43;17.55;;;10.07;;
1545;SDS011;766;51.502;9.752;2023-11-21T08:53:11;18.55;;;9.88;;
1545;SDS011;766;51.502;9.752;2023-11-21T08:55:41;16.08;;;9.27;;
1545;SDS011;766;51.502;9.752;2023-11-21T08:58:10;17.63;;;8.80;;
1545;SDS011;766;51.502;9.752;2023-11-21T09:00:39;15.20;;;9.68;;
1545;SDS011;766;51.502;9.752;2023-11-21T09:03:07;17.17;;;9.32;;
1545;SDS011;766;51.502;9.752;2023-11-21T09:05:37;19.77;;;9.90;;
1545;SDS011;766;51.502;9.752;2023-11-21T09:08:06;16.80;;;9.27;;
1545;SDS011;766;51.502;9.752;2023-11-21T09:10:34;17.27;;;9.57;;
1545;SDS011;766;51.502;9.752;2023-11-21T09:13:05;15.52;;;8.30;;
1545;SDS011;766;51.502;9.752;2023-11-21T09:15:35;15.20;;;8.80;;
1545;SDS011;766;51.502;9.752;2023-11-21T09:18:04;16.50;;;9.25;;
1545;SDS011;766;51.502;9.752;2023-11-21T09:20:32;14.43;;;8.40;;
1545;SDS011;766;51.502;9.752;2023-11-21T09:23:00;13.38;;;8.60;;
1545;SDS011;766;51.502;9.752;2023-11-21T09:25:29;15.48;;;8.82;;
1545;SDS011;766;51.502;9.752;2023-11-21T09:27:57;14.43;;;8.63;;
1545;SDS011;766;51.502;9.752;2023-11-21T09:30:27;16.02;;;8.95;;
1545;SDS011;766;51.502;9.752;2023-11-21T09:32:57;17.05;;;9.00;;
1545;SDS011;766;51.502;9.752;2023-11-21T09:35:27;15.60;;;9.05;;
1545;SDS011;766;51.502;9.752;2023-11-21T09:37:55;13.52;;;8.27;;
1545;SDS011;766;51.502;9.752;2023-11-21T09:40:23;13.55;;;7.70;;
1545;SDS011;766;51.502;9.752;2023-11-21T09:42:54;12.63;;;8.05;;
1545;SDS011;766;51.502;9.752;2023-11-21T09:45:28;11.55;;;7.82;;
1545;SDS011;766;51.502;9.752;2023-11-21T09:48:00;10.93;;;7.25;;
1545;SDS011;766;51.502;9.752;2023-11-21T09:50:29;9.90;;;6.30;;
1545;SDS011;766;51.502;9.752;2023-11-21T09:53:03;11.35;;;7.20;;
1545;SDS011;766;51.502;9.752;2023-11-21T09:55:42;8.30;;;5.60;;
1545;SDS011;766;51.502;9.752;2023-11-21T09:58:11;9.38;;;6.75;;
1545;SDS011;766;51.502;9.752;2023-11-21T10:00:42;11.40;;;6.30;;
1545;SDS011;766;51.502;9.752;2023-11-21T10:03:12;9.70;;;6.75;;
1545;SDS011;766;51.502;9.752;2023-11-21T10:05:42;8.55;;;6.47;;
1545;SDS011;766;51.502;9.752;2023-11-21T10:08:12;9.32;;;6.47;;
1545;SDS011;766;51.502;9.752;2023-11-21T10:10:42;12.65;;;6.47;;
1545;SDS011;766;51.502;9.752;2023-11-21T10:13:12;9.95;;;6.32;;
1545;SDS011;766;51.502;9.752;2023-11-21T10:15:45;10.50;;;7.30;;
1545;SDS011;766;51.502;9.752;2023-11-21T10:18:17;10.27;;;6.50;;
1545;SDS011;766;51.502;9.752;2023-11-21T10:20:46;12.95;;;6.50;;
1545;SDS011;766;51.502;9.752;2023-11-21T10:23:19;13.07;;;6.45;;
1545;SDS011;766;51.502;9.752;2023-11-21T10:25:50;9.43;;;6.75;;
1545;SDS011;766;51.502;9.752;2023-11-21T10:28:19;8.15;;;6.40;;
1545;SDS011;766;51.502;9.752;2023-11-21T10:30:49;8.98;;;6.05;;
1545;SDS011;766;51.502;9.752;2023-11-21T10:33:21;7.63;;;6.07;;
1545;SDS011;766;51.502;9.752;2023-11-21T10:35:55;9.48;;;6.72;;
1545;SDS011;766;51.502;9.752;2023-11-21T10:38:23;9.77;;;6.50;;
1545;SDS011;766;51.502;9.752;2023-11-21T10:40:53;10.45;;;6.45;;
1545;SDS011;766;51.502;9.752;2023-11-21T10:43:24;10.20;;;6.55;;
1545;SDS011;766;51.502;9.752;2023-11-21T10:45:55;12.77;;;6.93;;
1545;SDS011;766;51.502;9.752;2023-11-21T10:48:25;8.57;;;6.45;;
1545;SDS011;766;51.502;9.752;2023-11-21T10:50:53;10.23;;;6.45;;
1545;SDS011;766;51.502;9.752;2023-11-21T10:53:23;9.88;;;6.22;;
1545;SDS011;766;51.502;9.752;2023-11-21T10:55:55;9.30;;;5.53;;
1545;SDS011;766;51.502;9.752;2023-11-21T10:58:30;8.77;;;6.32;;
1545;SDS011;766;51.502;9.752;2023-11-21T11:01:01;9.65;;;6.28;;
1545;SDS011;766;51.502;9.752;2023-11-21T11:03:32;9.93;;;6.22;;
1545;SDS011;766;51.502;9.752;2023-11-21T11:06:04;7.75;;;5.45;;
1545;SDS011;766;51.502;9.752;2023-11-21T11:08:37;10.15;;;6.35;;
1545;SDS011;766;51.502;9.752;2023-11-21T11:11:07;7.47;;;4.78;;
1545;SDS011;766;51.502;9.752;2023-11-21T11:13:37;6.97;;;5.50;;
1545;SDS011;766;51.502;9.752;2023-11-21T11:16:07;7.93;;;5.72;;
1545;SDS011;766;51.502;9.752;2023-11-21T11:18:37;6.78;;;4.70;;
1545;SDS011;766;51.502;9.752;2023-11-21T11:21:07;11.00;;;5.00;;
1545;SDS011;766;51.502;9.752;2023-11-21T11:23:45;7.05;;;5.25;;
1545;SDS011;766;51.502;9.752;2023-11-21T11:26:24;8.80;;;5.70;;
1545;SDS011;766;51.502;9.752;2023-11-21T11:29:02;6.93;;;5.18;;
1545;SDS011;766;51.502;9.752;2023-11-21T11:31:40;7.10;;;5.07;;
1545;SDS011;766;51.502;9.752;2023-11-21T11:34:20;7.43;;;5.38;;
1545;SDS011;766;51.502;9.752;2023-11-21T11:36:59;8.85;;;5.70;;
1545;SDS011;766;51.502;9.752;2023-11-21T11:39:30;10.00;;;6.72;;
1545;SDS011;766;51.502;9.752;2023-11-21T11:42:03;10.45;;;6.90;;
1545;SDS011;766;51.502;9.752;2023-11-21T11:44:46;7.45;;;5.60;;
1545;SDS011;766;51.502;9.752;2023-11-21T11:47:26;8.02;;;5.50;;
1545;SDS011;766;51.502;9.752;2023-11-21T11:50:01;7.35;;;5.43;;
1545;SDS011;766;51.502;9.752;2023-11-21T11:52:36;8.52;;;5.90;;
1545;SDS011;766;51.502;9.752;2023-11-21T11:55:08;8.00;;;6.28;;
1545;SDS011;766;51.502;9.752;2023-11-21T11:57:41;7.78;;;5.55;;
1545;SDS011;766;51.502;9.752;2023-11-21T12:00:11;8.90;;;6.38;;
1545;SDS011;766;51.502;9.752;2023-11-21T12:02:46;8.43;;;6.25;;
1545;SDS011;766;51.502;9.752;2023-11-21T12:05:16;8.05;;;6.10;;
1545;SDS011;766;51.502;9.752;2023-11-21T12:07:46;8.57;;;5.78;;
1545;SDS011;766;51.502;9.752;2023-11-21T12:10:16;6.43;;;4.63;;
1545;SDS011;766;51.502;9.752;2023-11-21T12:12:47;7.53;;;4.90;;
1545;SDS011;766;51.502;9.752;2023-11-21T12:15:15;6.75;;;4.32;;
1545;SDS011;766;51.502;9.752;2023-11-21T12:17:45;9.60;;;3.80;;
1545;SDS011;766;51.502;9.752;2023-11-21T12:20:18;3.25;;;2.53;;
1545;SDS011;766;51.502;9.752;2023-11-21T12:22:47;4.20;;;1.80;;
1545;SDS011;766;51.502;9.752;2023-11-21T12:25:17;2.22;;;1.70;;
1545;SDS011;766;51.502;9.752;2023-11-21T12:27:46;1.92;;;1.50;;
1545;SDS011;766;51.502;9.752;2023-11-21T12:30:17;2.97;;;2.20;;
1545;SDS011;766;51.502;9.752;2023-11-21T12:32:49;4.43;;;2.78;;
1545;SDS011;766;51.502;9.752;2023-11-21T12:35:19;5.50;;;3.35;;
1545;SDS011;766;51.502;9.752;2023-11-21T12:37:49;7.55;;;4.97;;
1545;SDS011;766;51.502;9.752;2023-11-21T12:40:18;6.07;;;4.80;;
1545;SDS011;766;51.502;9.752;2023-11-21T12:42:50;6.88;;;5.05;;
1545;SDS011;766;51.502;9.752;2023-11-21T12:45:20;7.82;;;5.13;;
1545;SDS011;766;51.502;9.752;2023-11-21T12:47:54;7.60;;;5.43;;
1545;SDS011;766;51.502;9.752;2023-11-21T12:50:27;9.60;;;5.75;;
1545;SDS011;766;51.502;9.752;2023-11-21T12:52:58;10.25;;;5.70;;
1545;SDS011;766;51.502;9.752;2023-11-21T12:55:29;9.00;;;6.05;;
1545;SDS011;766;51.502;9.752;2023-11-21T12:58:00;9.98;;;6.70;;
1545;SDS011;766;51.502;9.752;2023-11-21T13:00:36;7.25;;;5.82;;
1545;SDS011;766;51.502;9.752;2023-11-21T13:03:07;8.80;;;6.72;;
1545;SDS011;766;51.502;9.752;2023-11-21T13:05:39;8.65;;;6.75;;
1545;SDS011;766;51.502;9.752;2023-11-21T13:08:13;9.25;;;7.03;;
1545;SDS011;766;51.502;9.752;2023-11-21T13:10:47;11.65;;;8.32;;
1545;SDS011;766;51.502;9.752;2023-11-21T13:13:17;13.15;;;7.15;;
1545;SDS011;766;51.502;9.752;2023-11-21T13:15:50;11.02;;;8.23;;
1545;SDS011;766;51.502;9.752;2023-11-21T13:18:23;11.70;;;7.45;;
1545;SDS011;766;51.502;9.752;2023-11-21T13:20:53;12.57;;;7.68;;
1545;SDS011;766;51.502;9.752;2023-11-21T13:23:23;8.80;;;6.68;;
1545;SDS011;766;51.502;9.752;2023-11-21T13:25:52;10.15;;;7.35;;
1545;SDS011;766;51.502;9.752;2023-11-21T13:28:30;12.75;;;7.75;;
1545;SDS011;766;51.502;9.752;2023-11-21T13:31:00;14.60;;;7.55;;
1545;SDS011;766;51.502;9.752;2023-11-21T13:33:38;10.10;;;7.32;;
1545;SDS011;766;51.502;9.752;2023-11-21T13:36:09;9.27;;;7.10;;
1545;SDS011;766;51.502;9.752;2023-11-21T13:38:40;10.40;;;7.13;;
1545;SDS011;766;51.502;9.752;2023-11-21T13:41:10;14.68;;;8.50;;
1545;SDS011;766;51.502;9.752;2023-11-21T13:43:41;11.43;;;7.47;;
1545;SDS011;766;51.502;9.752;2023-11-21T13:46:14;11.73;;;7.85;;
1545;SDS011;766;51.502;9.752;2023-11-21T13:48:50;12.55;;;7.40;;
1545;SDS011;766;51.502;9.752;2023-11-21T13:51:23;12.63;;;6.82;;
1545;SDS011;766;51.502;9.752;2023-11-21T13:54:00;10.55;;;7.05;;
1545;SDS011;766;51.502;9.752;2023-11-21T13:56:29;10.60;;;7.10;;
1545;SDS011;766;51.502;9.752;2023-11-21T13:58:58;8.73;;;6.07;;
1545;SDS011;766;51.502;9.752;2023-11-21T14:01:35;13.60;;;6.20;;
1545;SDS011;766;51.502;9.752;2023-11-21T14:04:22;10.82;;;7.40;;
1545;SDS011;766;51.502;9.752;2023-11-21T14:07:19;8.55;;;6.25;;
1545;SDS011;766;51.502;9.752;2023-11-21T14:10:02;13.18;;;7.25;;
1545;SDS011;766;51.502;9.752;2023-11-21T14:12:31;9.80;;;6.85;;
1545;SDS011;766;51.502;9.752;2023-11-21T14:15:05;10.50;;;5.97;;
1545;SDS011;766;51.502;9.752;2023-11-21T14:17:36;9.18;;;5.85;;
1545;SDS011;766;51.502;9.752;2023-11-21T14:20:09;10.25;;;5.68;;
1545;SDS011;766;51.502;9.752;2023-11-21T14:22:43;11.32;;;5.82;;
1545;SDS011;766;51.502;9.752;2023-11-21T14:25:12;8.90;;;5.88;;
1545;SDS011;766;51.502;9.752;2023-11-21T14:27:42;10.80;;;6.55;;
1545;SDS011;766;51.502;9.752;2023-11-21T14:30:10;9.82;;;6.63;;
1545;SDS011;766;51.502;9.752;2023-11-21T14:32:40;8.25;;;6.18;;
1545;SDS011;766;51.502;9.752;2023-11-21T14:35:10;11.50;;;5.93;;
1545;SDS011;766;51.502;9.752;2023-11-21T14:37:38;7.05;;;5.50;;
1545;SDS011;766;51.502;9.752;2023-11-21T14:40:07;12.20;;;6.10;;
1545;SDS011;766;51.502;9.752;2023-11-21T14:42:36;10.80;;;5.53;;
1545;SDS011;766;51.502;9.752;2023-11-21T14:45:06;7.78;;;5.20;;
1545;SDS011;766;51.502;9.752;2023-11-21T14:47:38;7.40;;;5.40;;
1545;SDS011;766;51.502;9.752;2023-11-21T14:50:16;7.72;;;5.20;;
1545;SDS011;766;51.502;9.752;2023-11-21T14:53:07;8.50;;;5.03;;
1545;SDS011;766;51.502;9.752;2023-11-21T14:55:36;7.95;;;5.93;;
1545;SDS011;766;51.502;9.752;2023-11-21T14:58:19;12.00;;;6.20;;
1545;SDS011;766;51.502;9.752;2023-11-21T15:00:53;12.90;;;5.82;;
1545;SDS011;766;51.502;9.752;2023-11-21T15:03:24;9.27;;;5.63;;
1545;SDS011;766;51.502;9.752;2023-11-21T15:06:11;8.65;;;4.55;;
1545;SDS011;766;51.502;9.752;2023-11-21T15:08:53;9.95;;;5.30;;
1545;SDS011;766;51.502;9.752;2023-11-21T15:11:39;7.80;;;4.72;;
1545;SDS011;766;51.502;9.752;2023-11-21T15:14:08;9.85;;;5.45;;
1545;SDS011;766;51.502;9.752;2023-11-21T15:16:39;6.15;;;4.20;;
1545;SDS011;766;51.502;9.752;2023-11-21T15:19:12;5.88;;;4.25;;
1545;SDS011;766;51.502;9.752;2023-11-21T15:21:46;6.25;;;4.57;;
1545;SDS011;766;51.502;9.752;2023-11-21T15:24:14;6.45;;;4.90;;
1545;SDS011;766;51.502;9.752;2023-11-21T15:26:42;6.68;;;4.32;;
1545;SDS011;766;51.502;9.752;2023-11-21T15:29:11;5.60;;;4.43;;
1545;SDS011;766;51.502;9.752;2023-11-21T15:31:41;8.65;;;4.88;;
1545;SDS011;766;51.502;9.752;2023-11-21T15:34:14;6.05;;;4.57;;
1545;SDS011;766;51.502;9.752;2023-11-21T15:36:43;7.47;;;4.95;;